Time;durP1;ratioP1;P1;durP2;ratioP2;P2;SDS_P1;SDS_P2;PMS_P1;PMS_P2;Temp;Humidity;BMP_temperature;BMP_pressure;BME280_temperature;BME280_humidity;BME280_pressure;Samples;Min_cycle;Max_cycle;Signal;HPM_P1;HPM_P2
2021/09/16 00:00:05;;;;;;;;;;;19.90;99.90;19.90;99415.00;;;;342010;28;83390;-90
2021/09/16 00:00:16;;;;;;;;;;;19.90;99.90;19.90;99422.00;;;;341129;28;97201;-90
2021/09/16 00:00:29;;;;;;;;;;;19.90;99.90;20.00;99426.00;;;;341928;28;83295;-90
2021/09/16 00:00:41;;;;;;;;;;;19.90;99.90;20.00;99427.00;;;;341133;28;96729;-90
2021/09/16 00:00:54;;;;;;;;;;;19.90;99.90;20.00;99424.00;;;;343270;28;82547;-90
2021/09/16 00:01:06;;;;;;;;;;;19.90;99.90;20.00;99428.00;;;;341187;28;97391;-90
2021/09/16 00:01:18;;;;;;;;;;;19.90;99.90;20.00;99421.00;;;;341912;28;83489;-90
2021/09/16 00:01:30;;;;;;;;;;;19.90;99.90;20.00;99427.00;;;;339852;28;96640;-90
2021/09/16 00:01:42;;;;;;;;;;;19.90;99.90;20.00;99427.00;;;;341911;28;83257;-90
2021/09/16 00:01:54;;;;;;;;;;;19.90;99.90;20.10;99433.00;;;;341105;28;93030;-91
2021/09/16 00:02:05;;;;;;;;;;;19.90;99.90;20.10;99429.00;;;;343561;28;83375;-90
2021/09/16 00:02:17;;;;;;;;;;;19.90;99.90;20.10;99427.00;;;;341373;28;97817;-90
2021/09/16 00:02:29;;;;;;;;;;;19.90;99.90;20.10;99436.00;;;;339382;28;82414;-90
2021/09/16 00:02:41;;;;;;;;;;;19.90;99.90;20.10;99429.00;;;;341362;28;96909;-90
2021/09/16 00:02:53;;;;;;;;;;;19.90;99.90;20.10;99430.00;;;;343526;28;82533;-90
2021/09/16 00:03:05;;;;;;;;;;;19.90;99.90;20.10;99429.00;;;;339972;28;96360;-90
2021/09/16 00:03:16;;;;;;;;;;;19.90;99.90;20.10;99429.00;;;;343288;28;83491;-90
2021/09/16 00:03:28;;;;;;;;;;;19.90;99.90;20.10;99435.00;;;;342820;28;95663;-90
2021/09/16 00:03:40;;;;;;;;;;;19.90;99.90;20.10;99426.00;;;;340780;28;83401;-90
2021/09/16 00:03:52;;;;;;;;;;;19.90;99.90;20.10;99431.00;;;;342545;28;96427;-90
2021/09/16 00:04:04;;;;;;;;;;;20.00;99.90;20.10;99432.00;;;;340778;28;83406;-90
2021/09/16 00:04:16;;;;;;;;;;;20.00;99.90;20.10;99428.00;;;;341362;28;97671;-90
2021/09/16 00:04:28;;;;;;;;;;;20.00;99.90;20.10;99434.00;;;;339465;28;83451;-90
2021/09/16 00:04:39;;;;;;;;;;;20.00;99.90;20.00;99435.00;;;;341434;28;95369;-90
2021/09/16 00:04:51;;;;;;;;;;;19.90;99.90;20.00;99428.00;;;;341844;28;82696;-89
2021/09/16 00:05:03;;;;;;;;;;;19.90;99.90;20.00;99433.00;;;;341390;28;96685;-90
2021/09/16 00:05:16;;;;;;;;;;;20.00;99.90;20.10;99427.00;;;;343500;28;82576;-90
2021/09/16 00:05:28;;;;;;;;;;;20.00;99.90;20.20;99433.00;;;;341440;28;95413;-90
2021/09/16 00:05:39;;;;;;;;;;;20.00;99.90;20.10;99434.00;;;;340839;28;83385;-90
2021/09/16 00:05:51;;;;;;;;;;;20.00;99.90;20.20;99435.00;;;;342623;28;96691;-90
2021/09/16 00:06:03;;;;;;;;;;;20.00;99.90;20.30;99432.00;;;;342197;28;83311;-89
2021/09/16 00:06:15;;;;;;;;;;;20.00;99.90;20.40;99428.00;;;;342654;28;96285;-90
2021/09/16 00:06:27;;;;;;;;;;;20.00;99.90;20.40;99430.00;;;;343430;28;83432;-90
2021/09/16 00:06:38;;;;;;;;;;;20.00;99.90;20.20;99430.00;;;;342495;28;97573;-89
2021/09/16 00:06:50;;;;;;;;;;;20.00;99.90;20.20;99429.00;;;;343513;28;83457;-90
2021/09/16 00:07:02;;;;;;;;;;;20.10;99.90;20.20;99431.00;;;;338730;28;95320;-90
2021/09/16 00:07:14;;;;;;;;;;;20.10;99.90;20.10;99428.00;;;;340826;28;83496;-90
2021/09/16 00:07:26;;;;;;;;;;;20.00;99.90;20.10;99430.00;;;;341434;28;96515;-90
2021/09/16 00:07:38;;;;;;;;;;;20.00;99.90;20.30;99434.00;;;;343508;28;83328;-90
2021/09/16 00:07:49;;;;;;;;;;;20.10;99.90;20.20;99427.00;;;;339984;28;96645;-89
2021/09/16 00:08:01;;;;;;;;;;;20.10;99.90;20.10;99425.00;;;;342299;28;83348;-90
2021/09/16 00:08:13;;;;;;;;;;;20.10;99.90;20.10;99429.00;;;;339884;28;96628;-90
2021/09/16 00:08:25;;;;;;;;;;;20.10;99.90;20.10;99432.00;;;;340805;28;82511;-90
2021/09/16 00:08:37;;;;;;;;;;;20.10;99.90;20.10;99427.00;;;;341503;28;95490;-90
2021/09/16 00:08:48;;;;;;;;;;;20.10;99.90;20.00;99425.00;;;;342148;28;83401;-90
2021/09/16 00:09:00;;;;;;;;;;;20.00;99.90;20.00;99433.00;;;;340064;28;93030;-90
2021/09/16 00:09:12;;;;;;;;;;;20.00;99.90;20.00;99426.00;;;;343431;28;82598;-90
2021/09/16 00:09:24;;;;;;;;;;;20.10;99.90;20.00;99428.00;;;;342709;28;96551;-90
2021/09/16 00:09:35;;;;;;;;;;;20.00;99.90;19.90;99429.00;;;;342154;28;83383;-89
2021/09/16 00:09:47;;;;;;;;;;;20.10;99.90;19.90;99425.00;;;;339929;28;96499;-89
2021/09/16 00:09:59;;;;;;;;;;;20.00;99.90;19.90;99427.00;;;;339458;28;83547;-89
2021/09/16 00:10:11;;;;;;;;;;;20.00;99.90;19.90;99432.00;;;;338725;28;97178;-90
2021/09/16 00:10:23;;;;;;;;;;;20.00;99.90;20.00;99437.00;;;;342124;28;82552;-90
2021/09/16 00:10:34;;;;;;;;;;;20.00;99.90;20.00;99427.00;;;;341320;28;96633;-90
2021/09/16 00:10:46;;;;;;;;;;;20.00;99.90;20.00;99423.00;;;;340824;28;83367;-90
2021/09/16 00:10:58;;;;;;;;;;;20.00;99.90;20.00;99436.00;;;;342640;28;97269;-90
2021/09/16 00:11:10;;;;;;;;;;;20.00;99.90;20.00;99430.00;;;;343563;28;83476;-89
2021/09/16 00:11:22;;;;;;;;;;;20.00;99.90;20.00;99435.00;;;;341400;28;96604;-89
2021/09/16 00:11:34;;;;;;;;;;;20.00;99.90;20.00;99434.00;;;;343457;28;82571;-90
2021/09/16 00:11:46;;;;;;;;;;;20.00;99.90;20.00;99431.00;;;;342737;28;95823;-89
2021/09/16 00:11:58;;;;;;;;;;;20.00;99.90;20.00;99432.00;;;;342035;28;83512;-89
2021/09/16 00:12:10;;;;;;;;;;;20.00;99.90;20.10;99433.00;;;;339933;28;98532;-90
2021/09/16 00:12:22;;;;;;;;;;;20.00;99.90;20.10;99435.00;;;;342201;28;83400;-89
2021/09/16 00:12:34;;;;;;;;;;;20.00;99.90;20.00;99439.00;;;;338651;28;95395;-90
2021/09/16 00:12:46;;;;;;;;;;;20.00;99.90;20.00;99429.00;;;;339543;28;83326;-90
2021/09/16 00:12:57;;;;;;;;;;;20.00;99.90;20.00;99437.00;;;;341327;28;96986;-90
2021/09/16 00:13:09;;;;;;;;;;;20.00;99.90;20.00;99438.00;;;;342122;28;83478;-90
2021/09/16 00:13:21;;;;;;;;;;;20.00;99.90;20.00;99436.00;;;;341228;28;96741;-90
2021/09/16 00:13:33;;;;;;;;;;;20.00;99.90;20.00;99442.00;;;;343525;28;82464;-89
2021/09/16 00:13:45;;;;;;;;;;;20.00;99.90;20.00;99437.00;;;;341249;28;96463;-90
2021/09/16 00:13:57;;;;;;;;;;;20.00;99.90;20.00;99446.00;;;;342070;28;83505;-90
2021/09/16 00:14:09;;;;;;;;;;;20.00;99.90;20.00;99444.00;;;;341394;28;96821;-90
2021/09/16 00:14:21;;;;;;;;;;;20.00;99.90;20.00;99445.00;;;;341973;28;83444;-90
2021/09/16 00:14:33;;;;;;;;;;;20.00;99.90;20.00;99432.00;;;;337318;28;96328;-90
2021/09/16 00:14:45;;;;;;;;;;;20.00;99.90;20.00;99436.00;;;;339457;28;83386;-90
2021/09/16 00:14:56;;;;;;;;;;;20.00;99.90;20.00;99447.00;;;;339985;28;96724;-90
2021/09/16 00:15:09;;;;;;;;;;;20.00;99.90;20.00;99436.00;;;;340740;28;83383;-90
2021/09/16 00:15:20;;;;;;;;;;;20.00;99.90;20.10;99453.00;;;;337322;28;95499;-90
2021/09/16 00:15:32;;;;;;;;;;;20.00;99.90;20.00;99450.00;;;;343466;28;83420;-90
2021/09/16 00:15:44;;;;;;;;;;;20.00;99.90;20.10;99440.00;;;;341392;28;93804;-90
2021/09/16 00:15:56;;;;;;;;;;;20.00;99.90;20.10;99440.00;;;;339349;28;83542;-89
2021/09/16 00:16:08;;;;;;;;;;;20.00;99.90;20.20;99442.00;;;;339896;28;96887;-90
2021/09/16 00:16:19;;;;;;;;;;;20.00;99.90;20.10;99442.00;;;;340618;28;82418;-90
2021/09/16 00:16:31;;;;;;;;;;;20.00;99.90;20.00;99451.00;;;;339832;28;95478;-90
2021/09/16 00:16:43;;;;;;;;;;;20.00;99.90;20.00;99449.00;;;;342063;28;82485;-90
2021/09/16 00:16:55;;;;;;;;;;;20.00;99.90;20.00;99447.00;;;;339634;28;96654;-90
2021/09/16 00:17:07;;;;;;;;;;;20.00;99.90;20.00;99449.00;;;;339223;28;83678;-90
2021/09/16 00:17:18;;;;;;;;;;;20.00;99.90;20.00;99448.00;;;;338559;28;96456;-90
2021/09/16 00:17:30;;;;;;;;;;;20.00;99.90;20.00;99445.00;;;;342050;28;83389;-90
2021/09/16 00:17:43;;;;;;;;;;;20.00;99.90;19.90;99448.00;;;;339885;28;95609;-90
2021/09/16 00:17:54;;;;;;;;;;;20.00;99.90;20.00;99455.00;;;;341537;28;82592;-90
2021/09/16 00:18:06;;;;;;;;;;;20.00;99.90;19.90;99441.00;;;;339825;28;97236;-90
2021/09/16 00:18:18;;;;;;;;;;;20.00;99.90;19.90;99451.00;;;;341897;28;82667;-90
2021/09/16 00:18:30;;;;;;;;;;;20.00;99.90;19.90;99454.00;;;;341240;28;96810;-90
2021/09/16 00:18:42;;;;;;;;;;;20.00;99.90;19.90;99452.00;;;;342110;28;83373;-90
2021/09/16 00:18:54;;;;;;;;;;;20.00;99.90;19.90;99443.00;;;;339970;28;96597;-90
2021/09/16 00:19:06;;;;;;;;;;;19.90;99.90;19.90;99443.00;;;;343386;28;83562;-90
2021/09/16 00:19:18;;;;;;;;;;;19.90;99.90;19.80;99453.00;;;;341261;28;96568;-90
2021/09/16 00:19:30;;;;;;;;;;;19.90;99.90;19.70;99450.00;;;;340818;28;83300;-90
2021/09/16 00:19:41;;;;;;;;;;;19.90;99.90;19.70;99446.00;;;;340010;28;96755;-90
2021/09/16 00:19:53;;;;;;;;;;;19.90;99.90;19.80;99441.00;;;;341099;28;83620;-90
2021/09/16 00:20:06;;;;;;;;;;;19.90;99.90;19.70;99447.00;;;;339743;28;98074;-90
2021/09/16 00:20:17;;;;;;;;;;;19.90;99.90;19.70;99453.00;;;;337671;28;83459;-90
2021/09/16 00:20:29;;;;;;;;;;;19.90;99.90;19.70;99442.00;;;;339895;28;94955;-90
2021/09/16 00:20:41;;;;;;;;;;;19.90;99.90;19.70;99445.00;;;;342145;28;83450;-90
2021/09/16 00:20:53;;;;;;;;;;;19.90;99.90;19.70;99446.00;;;;340479;28;96444;-90
2021/09/16 00:21:05;;;;;;;;;;;19.90;99.90;19.90;99451.00;;;;342215;28;82413;-90
2021/09/16 00:21:16;;;;;;;;;;;19.90;99.90;19.90;99443.00;;;;341224;28;97617;-90
2021/09/16 00:21:28;;;;;;;;;;;19.90;99.90;19.90;99448.00;;;;343454;28;83419;-90
2021/09/16 00:21:40;;;;;;;;;;;19.90;99.90;19.90;99448.00;;;;342726;28;96493;-90
2021/09/16 00:21:51;;;;;;;;;;;19.90;99.90;19.90;99446.00;;;;340665;28;83370;-90
2021/09/16 00:22:03;;;;;;;;;;;19.90;99.90;20.00;99452.00;;;;339862;28;97149;-91
2021/09/16 00:22:15;;;;;;;;;;;19.90;99.90;19.90;99450.00;;;;344815;28;82535;-90
2021/09/16 00:22:27;;;;;;;;;;;19.90;99.90;19.90;99447.00;;;;340045;28;95580;-90
2021/09/16 00:22:39;;;;;;;;;;;19.90;99.90;19.90;99447.00;;;;340502;28;83449;-90
2021/09/16 00:22:51;;;;;;;;;;;19.90;99.90;19.90;99448.00;;;;340138;28;95370;-90
2021/09/16 00:23:02;;;;;;;;;;;19.90;99.90;19.90;99448.00;;;;340827;28;83581;-90
2021/09/16 00:23:14;;;;;;;;;;;19.90;99.90;20.00;99444.00;;;;341243;28;96668;-90
2021/09/16 00:23:26;;;;;;;;;;;19.90;99.90;20.00;99448.00;;;;343433;28;82387;-90
2021/09/16 00:23:38;;;;;;;;;;;19.90;99.90;20.00;99449.00;;;;340021;28;96241;-90
2021/09/16 00:23:50;;;;;;;;;;;19.90;99.90;20.00;99449.00;;;;340486;28;83474;-90
2021/09/16 00:24:02;;;;;;;;;;;19.90;99.90;20.00;99454.00;;;;339739;28;97825;-89
2021/09/16 00:24:13;;;;;;;;;;;19.90;99.90;20.00;99448.00;;;;341894;28;83982;-89
2021/09/16 00:24:25;;;;;;;;;;;19.90;99.90;20.00;99445.00;;;;338685;28;95365;-90
2021/09/16 00:24:37;;;;;;;;;;;19.90;99.90;19.90;99448.00;;;;342103;28;83443;-90
2021/09/16 00:24:49;;;;;;;;;;;19.90;99.90;20.00;99447.00;;;;341304;28;96899;-90
2021/09/16 00:25:01;;;;;;;;;;;19.90;99.90;19.90;99450.00;;;;343415;28;83350;-90
2021/09/16 00:25:13;;;;;;;;;;;19.90;99.90;19.90;99448.00;;;;339955;28;95189;-90
2021/09/16 00:25:24;;;;;;;;;;;19.90;99.90;20.00;99452.00;;;;340756;28;83411;-90
2021/09/16 00:25:36;;;;;;;;;;;19.90;99.90;20.00;99453.00;;;;339940;28;96814;-90
2021/09/16 00:25:48;;;;;;;;;;;19.90;99.90;20.00;99445.00;;;;339407;28;82564;-90
2021/09/16 00:26:00;;;;;;;;;;;19.90;99.90;20.00;99449.00;;;;339680;28;96193;-90
2021/09/16 00:26:12;;;;;;;;;;;19.90;99.90;19.90;99445.00;;;;342052;28;83567;-91
2021/09/16 00:26:23;;;;;;;;;;;19.90;99.90;19.90;99452.00;;;;348306;28;11519;-89
2021/09/16 00:26:35;;;;;;;;;;;19.90;99.90;19.90;99439.00;;;;348324;28;11952;-90
2021/09/16 00:26:47;;;;;;;;;;;19.90;99.90;19.90;99454.00;;;;345462;28;13656;-90
2021/09/16 00:26:59;;;;;;;;;;;19.90;99.90;19.90;99447.00;;;;343999;28;12460;-90
2021/09/16 00:27:10;;;;;;;;;;;19.90;99.90;19.90;99449.00;;;;340278;28;91378;-90
2021/09/16 00:27:22;;;;;;;;;;;19.90;99.90;19.90;99453.00;;;;339381;28;83364;-90
2021/09/16 00:27:34;;;;;;;;;;;19.90;99.90;19.90;99451.00;;;;337251;28;97184;-90
2021/09/16 00:27:47;;;;;;;;;;;19.90;99.90;19.80;99451.00;;;;339357;28;83403;-90
2021/09/16 00:27:59;;;;;;;;;;;19.80;99.90;19.80;99454.00;;;;342561;28;97332;-90
2021/09/16 00:28:10;;;;;;;;;;;19.90;99.90;19.80;99456.00;;;;339322;28;84060;-89
2021/09/16 00:28:22;;;;;;;;;;;19.90;99.90;19.80;99456.00;;;;338755;28;96888;-90
2021/09/16 00:28:34;;;;;;;;;;;19.80;99.90;19.90;99452.00;;;;342009;28;83518;-89
2021/09/16 00:28:46;;;;;;;;;;;19.90;99.90;19.90;99449.00;;;;339825;28;96324;-90
2021/09/16 00:28:57;;;;;;;;;;;19.80;99.90;19.90;99458.00;;;;341918;28;82549;-89
2021/09/16 00:29:10;;;;;;;;;;;19.80;99.90;19.90;99453.00;;;;339596;28;96275;-90
2021/09/16 00:29:21;;;;;;;;;;;19.80;99.90;19.90;99455.00;;;;339834;28;83565;-90
2021/09/16 00:29:33;;;;;;;;;;;19.80;99.90;19.90;99456.00;;;;339964;28;96895;-89
2021/09/16 00:29:46;;;;;;;;;;;19.80;99.90;19.90;99449.00;;;;340667;28;83564;-90
2021/09/16 00:29:58;;;;;;;;;;;19.80;99.90;19.90;99455.00;;;;338361;28;97805;-90
2021/09/16 00:30:10;;;;;;;;;;;19.80;99.90;19.90;99459.00;;;;340691;28;83406;-90
2021/09/16 00:30:22;;;;;;;;;;;19.80;99.90;19.90;99450.00;;;;340013;28;95719;-90
2021/09/16 00:30:34;;;;;;;;;;;19.80;99.90;19.90;99449.00;;;;339320;28;83516;-90
2021/09/16 00:30:46;;;;;;;;;;;19.80;99.90;19.90;99454.00;;;;341044;28;95344;-90
2021/09/16 00:30:57;;;;;;;;;;;19.80;99.90;19.90;99450.00;;;;339395;28;83424;-89
2021/09/16 00:31:09;;;;;;;;;;;19.80;99.90;20.00;99453.00;;;;338514;28;96836;-90
2021/09/16 00:31:21;;;;;;;;;;;19.80;99.90;20.00;99446.00;;;;342043;28;82576;-90
2021/09/16 00:31:33;;;;;;;;;;;19.80;99.90;20.00;99450.00;;;;338707;28;96318;-91
2021/09/16 00:31:44;;;;;;;;;;;19.80;99.90;19.90;99452.00;;;;342114;28;82470;-90
2021/09/16 00:31:56;;;;;;;;;;;19.80;99.90;20.00;99452.00;;;;340757;28;96224;-89
2021/09/16 00:32:09;;;;;;;;;;;19.80;99.90;20.00;99449.00;;;;342033;28;82564;-91
2021/09/16 00:32:21;;;;;;;;;;;19.80;99.90;19.90;99446.00;;;;341112;28;96605;-90
2021/09/16 00:32:37;;;;;;;;;;;19.80;99.90;19.90;99452.00;;;;342086;28;83305;-90
2021/09/16 00:32:49;;;;;;;;;;;19.80;99.90;19.90;99449.00;;;;340099;28;96438;-90
2021/09/16 00:33:01;;;;;;;;;;;19.80;99.90;19.90;99450.00;;;;342067;28;83401;-90
2021/09/16 00:33:12;;;;;;;;;;;19.80;99.90;19.90;99456.00;;;;342475;28;96632;-90
2021/09/16 00:33:24;;;;;;;;;;;19.80;99.90;19.90;99450.00;;;;341965;28;83629;-90
2021/09/16 00:33:36;;;;;;;;;;;19.80;99.90;19.90;99452.00;;;;339959;28;95408;-90
2021/09/16 00:33:48;;;;;;;;;;;19.80;99.90;19.90;99452.00;;;;343253;28;82570;-90
2021/09/16 00:33:59;;;;;;;;;;;19.80;99.90;19.90;99450.00;;;;339843;28;96230;-89
2021/09/16 00:34:11;;;;;;;;;;;19.80;99.90;19.90;99456.00;;;;341966;28;83597;-90
2021/09/16 00:34:24;;;;;;;;;;;19.80;99.90;19.90;99449.00;;;;342551;28;96622;-90
2021/09/16 00:34:36;;;;;;;;;;;19.80;99.90;19.90;99441.00;;;;343204;28;82692;-90
2021/09/16 00:34:48;;;;;;;;;;;19.80;99.90;20.00;99459.00;;;;341102;28;94496;-90
2021/09/16 00:35:00;;;;;;;;;;;19.80;99.90;20.00;99446.00;;;;341880;28;82640;-90
2021/09/16 00:35:12;;;;;;;;;;;19.80;99.90;19.90;99451.00;;;;339789;28;97040;-90
2021/09/16 00:35:24;;;;;;;;;;;19.80;99.90;19.90;99451.00;;;;341894;28;83594;-89
2021/09/16 00:35:35;;;;;;;;;;;19.80;99.90;19.90;99451.00;;;;338676;28;96094;-90
2021/09/16 00:35:47;;;;;;;;;;;19.80;99.90;19.80;99444.00;;;;340629;28;82607;-90
2021/09/16 00:35:59;;;;;;;;;;;19.80;99.90;19.90;99452.00;;;;338538;28;96496;-90
2021/09/16 00:36:11;;;;;;;;;;;19.80;99.90;20.00;99448.00;;;;340611;28;82504;-90
2021/09/16 00:36:23;;;;;;;;;;;19.80;99.90;20.00;99447.00;;;;341157;28;96487;-89
2021/09/16 00:36:34;;;;;;;;;;;19.80;99.90;20.00;99451.00;;;;342000;28;82454;-89
2021/09/16 00:36:46;;;;;;;;;;;19.80;99.90;20.00;99448.00;;;;341200;28;96453;-90
2021/09/16 00:36:58;;;;;;;;;;;19.80;99.90;20.00;99444.00;;;;342012;28;83484;-90
2021/09/16 00:37:10;;;;;;;;;;;19.80;99.90;19.90;99443.00;;;;339651;28;96820;-90
2021/09/16 00:37:21;;;;;;;;;;;19.80;99.90;19.90;99447.00;;;;340724;28;83439;-90
2021/09/16 00:37:33;;;;;;;;;;;19.80;99.90;19.90;99442.00;;;;341254;28;95972;-90
2021/09/16 00:37:46;;;;;;;;;;;19.80;99.90;20.00;99447.00;;;;340495;28;83535;-90
2021/09/16 00:37:58;;;;;;;;;;;19.80;99.90;20.10;99441.00;;;;341649;28;96826;-90
2021/09/16 00:38:10;;;;;;;;;;;19.80;99.90;20.10;99447.00;;;;343159;28;83621;-90
2021/09/16 00:38:22;;;;;;;;;;;19.80;99.90;20.10;99445.00;;;;340637;28;97347;-90
2021/09/16 00:38:33;;;;;;;;;;;19.80;99.90;20.00;99442.00;;;;339272;28;83499;-90
2021/09/16 00:38:45;;;;;;;;;;;19.80;99.90;20.00;99438.00;;;;341330;28;95381;-90
2021/09/16 00:38:57;;;;;;;;;;;19.80;99.90;20.00;99445.00;;;;339224;28;83466;-90
2021/09/16 00:39:09;;;;;;;;;;;19.80;99.90;20.00;99444.00;;;;340988;28;96448;-90
2021/09/16 00:39:21;;;;;;;;;;;19.80;99.90;20.00;99447.00;;;;343347;28;83436;-90
2021/09/16 00:39:32;;;;;;;;;;;19.80;99.90;20.10;99444.00;;;;339927;28;96551;-90
2021/09/16 00:39:44;;;;;;;;;;;19.90;99.90;20.00;99438.00;;;;339375;28;83481;-90
2021/09/16 00:39:56;;;;;;;;;;;19.80;99.90;19.90;99441.00;;;;341099;28;95554;-89
2021/09/16 00:40:08;;;;;;;;;;;19.80;99.90;19.80;99439.00;;;;340723;28;82300;-90
2021/09/16 00:40:20;;;;;;;;;;;19.80;99.90;19.80;99448.00;;;;339901;28;96717;-90
2021/09/16 00:40:32;;;;;;;;;;;19.80;99.90;19.80;99442.00;;;;340594;28;83382;-90
2021/09/16 00:40:44;;;;;;;;;;;19.80;99.90;19.90;99441.00;;;;340014;28;96915;-90
2021/09/16 00:40:56;;;;;;;;;;;19.80;99.90;19.90;99439.00;;;;341714;28;82570;-89
2021/09/16 00:41:08;;;;;;;;;;;19.80;99.90;19.90;99439.00;;;;341231;28;95538;-89
2021/09/16 00:41:20;;;;;;;;;;;19.80;99.90;19.90;99444.00;;;;341979;28;83492;-90
2021/09/16 00:41:32;;;;;;;;;;;19.80;99.90;19.90;99441.00;;;;339949;28;95389;-89
2021/09/16 00:41:44;;;;;;;;;;;19.80;99.90;19.80;99441.00;;;;343026;28;83450;-89
2021/09/16 00:41:55;;;;;;;;;;;19.80;99.90;19.70;99441.00;;;;342572;28;97250;-90
2021/09/16 00:42:08;;;;;;;;;;;19.80;99.90;19.60;99444.00;;;;344834;28;83366;-90
2021/09/16 00:42:19;;;;;;;;;;;19.80;99.90;19.60;99444.00;;;;341290;28;95512;-90
2021/09/16 00:42:31;;;;;;;;;;;19.80;99.90;19.70;99448.00;;;;340668;28;83481;-90
2021/09/16 00:42:43;;;;;;;;;;;19.80;99.90;19.80;99446.00;;;;341205;28;96673;-89
2021/09/16 00:42:55;;;;;;;;;;;19.80;99.90;19.80;99448.00;;;;343184;28;82417;-90
2021/09/16 00:43:07;;;;;;;;;;;19.80;99.90;19.70;99446.00;;;;344107;28;95866;-90
2021/09/16 00:43:18;;;;;;;;;;;19.80;99.90;19.60;99440.00;;;;342097;28;82647;-90
2021/09/16 00:43:30;;;;;;;;;;;19.80;99.90;19.50;99444.00;;;;339982;28;94321;-89
2021/09/16 00:43:42;;;;;;;;;;;19.80;99.90;19.50;99444.00;;;;340668;28;82604;-90
2021/09/16 00:43:55;;;;;;;;;;;19.70;99.90;19.50;99443.00;;;;343439;28;97210;-90
2021/09/16 00:44:07;;;;;;;;;;;19.70;99.90;19.70;99440.00;;;;343532;28;83411;-90
2021/09/16 00:44:18;;;;;;;;;;;19.70;99.90;19.60;99446.00;;;;339881;28;95469;-90
2021/09/16 00:44:30;;;;;;;;;;;19.70;99.90;19.50;99444.00;;;;342036;28;83515;-90
2021/09/16 00:44:42;;;;;;;;;;;19.70;99.90;19.50;99444.00;;;;342568;28;96356;-90
2021/09/16 00:44:54;;;;;;;;;;;19.70;99.90;19.50;99443.00;;;;340643;28;83620;-90
2021/09/16 00:45:06;;;;;;;;;;;19.70;99.90;19.60;99445.00;;;;339770;28;95728;-90
2021/09/16 00:45:18;;;;;;;;;;;19.70;99.90;19.50;99444.00;;;;340744;28;82480;-90
2021/09/16 00:45:30;;;;;;;;;;;19.70;99.90;19.50;99449.00;;;;341222;28;96525;-90
2021/09/16 00:45:41;;;;;;;;;;;19.70;99.90;19.50;99441.00;;;;342121;28;82422;-90
2021/09/16 00:46:01;;;;;;;;;;;19.70;99.90;19.60;99446.00;;;;339622;28;97176;-90
2021/09/16 00:46:13;;;;;;;;;;;19.70;99.90;19.50;99453.00;;;;342060;28;83505;-89
2021/09/16 00:46:26;;;;;;;;;;;19.70;99.90;19.50;99443.00;;;;341135;28;96831;-89
2021/09/16 00:46:38;;;;;;;;;;;19.70;99.90;19.50;99438.00;;;;340593;28;83399;-89
2021/09/16 00:46:50;;;;;;;;;;;19.70;99.90;19.50;99447.00;;;;341050;28;96767;-89
2021/09/16 00:47:02;;;;;;;;;;;19.60;99.90;19.60;99443.00;;;;340722;28;82531;-90
2021/09/16 00:47:14;;;;;;;;;;;19.60;99.90;19.60;99441.00;;;;339935;28;96411;-90
2021/09/16 00:47:27;;;;;;;;;;;19.60;99.90;19.60;99441.00;;;;343509;28;82533;-90
2021/09/16 00:47:41;;;;;;;;;;;19.60;99.90;19.60;99445.00;;;;342651;28;95058;-90
2021/09/16 00:47:53;;;;;;;;;;;19.60;99.90;19.60;99441.00;;;;342640;28;83701;-90
2021/09/16 00:48:05;;;;;;;;;;;19.60;99.90;19.70;99437.00;;;;341227;28;96425;-90
2021/09/16 00:48:17;;;;;;;;;;;19.60;99.90;19.70;99441.00;;;;342074;28;82520;-90
2021/09/16 00:48:29;;;;;;;;;;;19.60;99.90;19.70;99439.00;;;;338596;28;96439;-90
2021/09/16 00:48:41;;;;;;;;;;;19.60;99.90;19.80;99434.00;;;;342075;28;83438;-90
2021/09/16 00:48:53;;;;;;;;;;;19.60;99.90;19.80;99441.00;;;;339726;28;95180;-90
2021/09/16 00:49:06;;;;;;;;;;;19.60;99.90;19.70;99435.00;;;;340794;28;82480;-90
2021/09/16 00:49:18;;;;;;;;;;;19.60;99.90;19.60;99446.00;;;;339871;28;95672;-90
2021/09/16 00:49:30;;;;;;;;;;;19.60;99.90;19.70;99445.00;;;;342088;28;82430;-90
2021/09/16 00:49:43;;;;;;;;;;;19.60;99.90;19.70;99439.00;;;;341302;28;96614;-90
2021/09/16 00:49:55;;;;;;;;;;;19.60;99.90;19.70;99438.00;;;;341549;28;83525;-90
2021/09/16 00:50:07;;;;;;;;;;;19.60;99.90;19.70;99447.00;;;;342488;28;96394;-90
2021/09/16 00:50:21;;;;;;;;;;;19.60;99.90;19.70;99448.00;;;;341117;28;83275;-90
2021/09/16 00:50:35;;;;;;;;;;;19.60;99.90;19.70;99445.00;;;;338441;28;97451;-89
2021/09/16 00:50:47;;;;;;;;;;;19.60;99.90;19.70;99445.00;;;;342245;28;82436;-89
2021/09/16 00:50:58;;;;;;;;;;;19.60;99.90;19.70;99442.00;;;;341289;28;96516;-90
2021/09/16 00:51:10;;;;;;;;;;;19.60;99.90;19.60;99445.00;;;;340716;28;82435;-90
2021/09/16 00:51:22;;;;;;;;;;;19.60;99.90;19.60;99450.00;;;;341114;28;95821;-90
2021/09/16 00:51:34;;;;;;;;;;;19.60;99.90;19.50;99452.00;;;;342167;28;82493;-90
2021/09/16 00:51:46;;;;;;;;;;;19.60;99.90;19.50;99456.00;;;;341230;28;95617;-90
2021/09/16 00:51:58;;;;;;;;;;;19.60;99.90;19.50;99447.00;;;;340589;28;83277;-89
2021/09/16 00:52:10;;;;;;;;;;;19.60;99.90;19.50;99453.00;;;;339889;28;96274;-90
2021/09/16 00:52:22;;;;;;;;;;;19.60;99.90;19.50;99454.00;;;;342003;28;83388;-90
2021/09/16 00:52:34;;;;;;;;;;;19.60;99.90;19.40;99458.00;;;;342530;28;95586;-90
2021/09/16 00:52:46;;;;;;;;;;;19.60;99.90;19.40;99450.00;;;;341585;28;82600;-90
2021/09/16 00:52:58;;;;;;;;;;;19.60;99.90;19.40;99450.00;;;;339581;28;95458;-90
2021/09/16 00:53:10;;;;;;;;;;;19.60;99.90;19.50;99452.00;;;;340647;28;84386;-89
2021/09/16 00:53:22;;;;;;;;;;;19.60;99.90;19.50;99464.00;;;;342672;28;96331;-90
2021/09/16 00:53:34;;;;;;;;;;;19.50;99.90;19.40;99453.00;;;;342125;28;82547;-90
2021/09/16 00:53:46;;;;;;;;;;;19.50;99.90;19.40;99456.00;;;;341275;28;96761;-90
2021/09/16 00:53:58;;;;;;;;;;;19.50;99.90;19.40;99452.00;;;;343396;28;82585;-90
2021/09/16 00:54:10;;;;;;;;;;;19.50;99.90;19.40;99463.00;;;;339862;28;97619;-90
2021/09/16 00:54:22;;;;;;;;;;;19.50;99.90;19.40;99449.00;;;;338063;28;83365;-89
2021/09/16 00:54:34;;;;;;;;;;;19.50;99.90;19.30;99459.00;;;;338601;28;93879;-90
2021/09/16 00:54:46;;;;;;;;;;;19.50;99.90;19.30;99456.00;;;;339432;28;82539;-90
2021/09/16 00:54:58;;;;;;;;;;;19.50;99.90;19.30;99457.00;;;;338599;28;96514;-90
2021/09/16 00:55:10;;;;;;;;;;;19.50;99.90;19.40;99453.00;;;;340630;28;82412;-90
2021/09/16 00:55:23;;;;;;;;;;;19.50;99.90;19.50;99456.00;;;;339917;28;96532;-90
2021/09/16 00:55:35;;;;;;;;;;;19.50;99.90;19.50;99456.00;;;;340600;28;83503;-90
2021/09/16 00:55:46;;;;;;;;;;;19.50;99.90;19.50;99461.00;;;;341213;28;94296;-89
2021/09/16 00:55:59;;;;;;;;;;;19.50;99.90;19.50;99457.00;;;;343156;28;83540;-90
2021/09/16 00:56:11;;;;;;;;;;;19.50;99.90;19.60;99452.00;;;;341199;28;97151;-90
2021/09/16 00:56:23;;;;;;;;;;;19.50;99.90;19.50;99450.00;;;;340243;28;82573;-90
2021/09/16 00:56:34;;;;;;;;;;;19.50;99.90;19.50;99447.00;;;;339784;28;95442;-90
2021/09/16 00:56:47;;;;;;;;;;;19.50;99.90;19.50;99459.00;;;;340825;28;83409;-90
2021/09/16 00:56:59;;;;;;;;;;;19.50;99.90;19.50;99458.00;;;;337294;28;96427;-90
2021/09/16 00:57:11;;;;;;;;;;;19.50;99.90;19.40;99457.00;;;;339252;28;83410;-90
2021/09/16 00:57:23;;;;;;;;;;;19.50;99.90;19.50;99452.00;;;;341361;28;96946;-90
2021/09/16 00:57:36;;;;;;;;;;;19.50;99.90;19.50;99454.00;;;;339397;28;83509;-90
2021/09/16 00:57:50;;;;;;;;;;;19.50;99.90;19.50;99458.00;;;;339891;28;96731;-90
2021/09/16 00:58:04;;;;;;;;;;;19.50;99.90;19.40;99451.00;;;;342117;28;82592;-90
2021/09/16 00:58:16;;;;;;;;;;;19.50;99.90;19.50;99452.00;;;;339928;28;95121;-90
2021/09/16 00:58:28;;;;;;;;;;;19.50;99.90;19.60;99447.00;;;;342093;28;82546;-90
2021/09/16 00:58:40;;;;;;;;;;;19.50;99.90;19.50;99441.00;;;;341186;28;97045;-90
2021/09/16 00:58:52;;;;;;;;;;;19.50;99.90;19.50;99452.00;;;;339844;28;82707;-90
2021/09/16 00:59:04;;;;;;;;;;;19.50;99.90;19.60;99451.00;;;;342491;28;96896;-90
2021/09/16 00:59:17;;;;;;;;;;;19.50;99.90;19.60;99444.00;;;;341831;28;82610;-89